sensor_id;sensor_type;location;lat;lon;timestamp;P1;durP1;ratioP1;P2;durP2;ratioP2
16101;SDS011;56411;52.964;10.540;2023-10-13T00:01:54;17.20;;;7.95;;
16101;SDS011;56411;52.964;10.540;2023-10-13T00:04:24;16.52;;;7.68;;
16101;SDS011;56411;52.964;10.540;2023-10-13T00:06:52;17.50;;;8.23;;
16101;SDS011;56411;52.964;10.540;2023-10-13T00:09:21;17.65;;;7.95;;
16101;SDS011;56411;52.964;10.540;2023-10-13T00:11:50;18.70;;;7.90;;
16101;SDS011;56411;52.964;10.540;2023-10-13T00:14:17;19.70;;;9.10;;
16101;SDS011;56411;52.964;10.540;2023-10-13T00:16:46;20.20;;;8.23;;
16101;SDS011;56411;52.964;10.540;2023-10-13T00:19:28;18.25;;;8.30;;
16101;SDS011;56411;52.964;10.540;2023-10-13T00:22:05;21.20;;;9.48;;
16101;SDS011;56411;52.964;10.540;2023-10-13T00:24:35;19.58;;;9.40;;
16101;SDS011;56411;52.964;10.540;2023-10-13T00:27:11;18.83;;;8.32;;
16101;SDS011;56411;52.964;10.540;2023-10-13T00:29:54;19.33;;;9.50;;
16101;SDS011;56411;52.964;10.540;2023-10-13T00:32:41;18.58;;;9.02;;
16101;SDS011;56411;52.964;10.540;2023-10-13T00:35:10;17.92;;;8.65;;
16101;SDS011;56411;52.964;10.540;2023-10-13T00:37:42;18.27;;;9.05;;
16101;SDS011;56411;52.964;10.540;2023-10-13T00:40:10;20.40;;;8.95;;
16101;SDS011;56411;52.964;10.540;2023-10-13T00:42:52;18.98;;;8.55;;
16101;SDS011;56411;52.964;10.540;2023-10-13T00:45:19;18.27;;;9.00;;
16101;SDS011;56411;52.964;10.540;2023-10-13T00:47:46;17.02;;;8.32;;
16101;SDS011;56411;52.964;10.540;2023-10-13T00:50:21;19.10;;;9.10;;
16101;SDS011;56411;52.964;10.540;2023-10-13T00:52:50;16.50;;;8.13;;
16101;SDS011;56411;52.964;10.540;2023-10-13T00:55:17;18.00;;;8.70;;
16101;SDS011;56411;52.964;10.540;2023-10-13T00:57:48;19.52;;;9.95;;
16101;SDS011;56411;52.964;10.540;2023-10-13T01:00:19;18.95;;;9.98;;
16101;SDS011;56411;52.964;10.540;2023-10-13T01:02:52;15.55;;;8.82;;
16101;SDS011;56411;52.964;10.540;2023-10-13T01:05:21;17.98;;;9.18;;
16101;SDS011;56411;52.964;10.540;2023-10-13T01:07:48;18.40;;;9.55;;
16101;SDS011;56411;52.964;10.540;2023-10-13T01:10:19;18.75;;;9.52;;
16101;SDS011;56411;52.964;10.540;2023-10-13T01:12:45;19.45;;;11.15;;
16101;SDS011;56411;52.964;10.540;2023-10-13T01:15:12;20.95;;;11.15;;
16101;SDS011;56411;52.964;10.540;2023-10-13T01:17:43;20.05;;;9.95;;
16101;SDS011;56411;52.964;10.540;2023-10-13T01:20:11;22.45;;;11.43;;
16101;SDS011;56411;52.964;10.540;2023-10-13T01:22:43;19.42;;;11.40;;
16101;SDS011;56411;52.964;10.540;2023-10-13T01:25:16;19.83;;;9.82;;
16101;SDS011;56411;52.964;10.540;2023-10-13T01:27:44;19.10;;;10.32;;
16101;SDS011;56411;52.964;10.540;2023-10-13T01:30:14;22.90;;;11.52;;
16101;SDS011;56411;52.964;10.540;2023-10-13T01:32:41;20.65;;;11.32;;
16101;SDS011;56411;52.964;10.540;2023-10-13T01:35:08;26.05;;;11.55;;
16101;SDS011;56411;52.964;10.540;2023-10-13T01:37:35;19.40;;;10.32;;
16101;SDS011;56411;52.964;10.540;2023-10-13T01:40:02;22.30;;;11.57;;
16101;SDS011;56411;52.964;10.540;2023-10-13T01:42:30;23.98;;;12.68;;
16101;SDS011;56411;52.964;10.540;2023-10-13T01:44:57;21.92;;;11.65;;
16101;SDS011;56411;52.964;10.540;2023-10-13T01:47:30;24.20;;;12.55;;
16101;SDS011;56411;52.964;10.540;2023-10-13T01:49:58;25.10;;;12.95;;
16101;SDS011;56411;52.964;10.540;2023-10-13T01:52:31;20.45;;;11.73;;
16101;SDS011;56411;52.964;10.540;2023-10-13T01:54:58;21.98;;;12.07;;
16101;SDS011;56411;52.964;10.540;2023-10-13T01:57:26;22.98;;;12.35;;
16101;SDS011;56411;52.964;10.540;2023-10-13T01:59:54;22.13;;;12.27;;
16101;SDS011;56411;52.964;10.540;2023-10-13T02:02:20;22.58;;;12.45;;
16101;SDS011;56411;52.964;10.540;2023-10-13T02:04:53;24.45;;;13.50;;
16101;SDS011;56411;52.964;10.540;2023-10-13T02:07:22;24.52;;;13.32;;
16101;SDS011;56411;52.964;10.540;2023-10-13T02:09:54;26.33;;;13.52;;
16101;SDS011;56411;52.964;10.540;2023-10-13T02:12:20;22.80;;;13.48;;
16101;SDS011;56411;52.964;10.540;2023-10-13T02:15:03;24.23;;;13.25;;
16101;SDS011;56411;52.964;10.540;2023-10-13T02:17:30;25.58;;;13.77;;
16101;SDS011;56411;52.964;10.540;2023-10-13T02:20:07;24.42;;;13.98;;
16101;SDS011;56411;52.964;10.540;2023-10-13T02:22:35;25.63;;;14.80;;
16101;SDS011;56411;52.964;10.540;2023-10-13T02:25:03;25.80;;;14.20;;
16101;SDS011;56411;52.964;10.540;2023-10-13T02:27:32;25.52;;;14.15;;
16101;SDS011;56411;52.964;10.540;2023-10-13T02:30:07;23.45;;;14.23;;
16101;SDS011;56411;52.964;10.540;2023-10-13T02:32:39;25.23;;;13.75;;
16101;SDS011;56411;52.964;10.540;2023-10-13T02:35:08;25.27;;;14.50;;
16101;SDS011;56411;52.964;10.540;2023-10-13T02:37:41;25.65;;;14.15;;
16101;SDS011;56411;52.964;10.540;2023-10-13T02:40:10;25.17;;;15.00;;
16101;SDS011;56411;52.964;10.540;2023-10-13T02:42:37;26.60;;;14.80;;
16101;SDS011;56411;52.964;10.540;2023-10-13T02:45:07;27.52;;;15.15;;
16101;SDS011;56411;52.964;10.540;2023-10-13T02:47:37;27.40;;;16.80;;
16101;SDS011;56411;52.964;10.540;2023-10-13T02:50:03;27.35;;;15.75;;
16101;SDS011;56411;52.964;10.540;2023-10-13T02:52:37;29.23;;;16.92;;
16101;SDS011;56411;52.964;10.540;2023-10-13T02:55:06;34.58;;;19.80;;
16101;SDS011;56411;52.964;10.540;2023-10-13T02:57:35;33.67;;;19.65;;
16101;SDS011;56411;52.964;10.540;2023-10-13T03:00:02;40.22;;;22.25;;
16101;SDS011;56411;52.964;10.540;2023-10-13T03:02:42;42.65;;;23.00;;
16101;SDS011;56411;52.964;10.540;2023-10-13T03:05:13;43.97;;;24.30;;
16101;SDS011;56411;52.964;10.540;2023-10-13T03:07:39;42.05;;;23.20;;
16101;SDS011;56411;52.964;10.540;2023-10-13T03:10:08;46.85;;;24.65;;
16101;SDS011;56411;52.964;10.540;2023-10-13T03:12:35;45.50;;;24.95;;
16101;SDS011;56411;52.964;10.540;2023-10-13T03:15:03;43.28;;;24.35;;
16101;SDS011;56411;52.964;10.540;2023-10-13T03:17:37;47.40;;;25.08;;
16101;SDS011;56411;52.964;10.540;2023-10-13T03:20:10;48.00;;;26.23;;
16101;SDS011;56411;52.964;10.540;2023-10-13T03:22:38;43.10;;;24.85;;
16101;SDS011;56411;52.964;10.540;2023-10-13T03:25:05;47.67;;;25.92;;
16101;SDS011;56411;52.964;10.540;2023-10-13T03:27:34;45.45;;;24.73;;
16101;SDS011;56411;52.964;10.540;2023-10-13T03:30:26;46.67;;;25.80;;
16101;SDS011;56411;52.964;10.540;2023-10-13T03:33:00;46.42;;;25.70;;
16101;SDS011;56411;52.964;10.540;2023-10-13T03:35:36;46.35;;;25.00;;
16101;SDS011;56411;52.964;10.540;2023-10-13T03:38:05;45.65;;;26.25;;
16101;SDS011;56411;52.964;10.540;2023-10-13T03:40:41;49.58;;;27.30;;
16101;SDS011;56411;52.964;10.540;2023-10-13T03:43:13;47.30;;;27.35;;
16101;SDS011;56411;52.964;10.540;2023-10-13T03:45:46;55.40;;;30.05;;
16101;SDS011;56411;52.964;10.540;2023-10-13T03:48:18;53.03;;;28.50;;
16101;SDS011;56411;52.964;10.540;2023-10-13T03:50:57;49.83;;;27.63;;
16101;SDS011;56411;52.964;10.540;2023-10-13T03:53:28;49.17;;;27.20;;
16101;SDS011;56411;52.964;10.540;2023-10-13T03:55:58;46.95;;;27.15;;
16101;SDS011;56411;52.964;10.540;2023-10-13T03:58:34;55.63;;;29.08;;
16101;SDS011;56411;52.964;10.540;2023-10-13T04:01:03;52.75;;;28.48;;
16101;SDS011;56411;52.964;10.540;2023-10-13T04:03:31;50.10;;;28.88;;
16101;SDS011;56411;52.964;10.540;2023-10-13T04:06:02;47.58;;;28.33;;
16101;SDS011;56411;52.964;10.540;2023-10-13T04:08:33;50.00;;;28.55;;
16101;SDS011;56411;52.964;10.540;2023-10-13T04:11:33;52.75;;;28.85;;
16101;SDS011;56411;52.964;10.540;2023-10-13T04:14:25;49.50;;;29.23;;
16101;SDS011;56411;52.964;10.540;2023-10-13T04:17:15;50.22;;;29.63;;
16101;SDS011;56411;52.964;10.540;2023-10-13T04:19:47;51.90;;;29.55;;
16101;SDS011;56411;52.964;10.540;2023-10-13T04:22:30;50.47;;;29.45;;
16101;SDS011;56411;52.964;10.540;2023-10-13T04:25:23;52.65;;;29.80;;
16101;SDS011;56411;52.964;10.540;2023-10-13T04:28:00;50.65;;;28.67;;
16101;SDS011;56411;52.964;10.540;2023-10-13T04:30:59;50.17;;;29.23;;
16101;SDS011;56411;52.964;10.540;2023-10-13T04:33:37;44.25;;;27.30;;
16101;SDS011;56411;52.964;10.540;2023-10-13T04:36:16;45.03;;;27.55;;
16101;SDS011;56411;52.964;10.540;2023-10-13T04:39:02;43.85;;;27.33;;
16101;SDS011;56411;52.964;10.540;2023-10-13T04:41:35;44.45;;;25.75;;
16101;SDS011;56411;52.964;10.540;2023-10-13T04:44:04;44.35;;;27.48;;
16101;SDS011;56411;52.964;10.540;2023-10-13T04:46:52;44.05;;;27.23;;
16101;SDS011;56411;52.964;10.540;2023-10-13T04:49:33;45.45;;;28.45;;
16101;SDS011;56411;52.964;10.540;2023-10-13T04:52:15;44.55;;;27.83;;
16101;SDS011;56411;52.964;10.540;2023-10-13T04:55:05;45.63;;;26.98;;
16101;SDS011;56411;52.964;10.540;2023-10-13T04:58:02;44.55;;;26.77;;
16101;SDS011;56411;52.964;10.540;2023-10-13T05:00:40;43.25;;;26.98;;
16101;SDS011;56411;52.964;10.540;2023-10-13T05:03:42;45.30;;;27.98;;
16101;SDS011;56411;52.964;10.540;2023-10-13T05:06:27;45.25;;;26.50;;
16101;SDS011;56411;52.964;10.540;2023-10-13T05:09:12;44.03;;;26.92;;
16101;SDS011;56411;52.964;10.540;2023-10-13T05:11:58;42.97;;;25.88;;
16101;SDS011;56411;52.964;10.540;2023-10-13T05:14:42;44.00;;;27.10;;
16101;SDS011;56411;52.964;10.540;2023-10-13T05:17:23;41.22;;;26.15;;
16101;SDS011;56411;52.964;10.540;2023-10-13T05:20:08;44.95;;;27.08;;
16101;SDS011;56411;52.964;10.540;2023-10-13T05:22:53;42.25;;;25.83;;
16101;SDS011;56411;52.964;10.540;2023-10-13T05:25:37;43.03;;;27.10;;
16101;SDS011;56411;52.964;10.540;2023-10-13T05:28:24;39.75;;;25.60;;
16101;SDS011;56411;52.964;10.540;2023-10-13T05:31:04;39.80;;;25.67;;
16101;SDS011;56411;52.964;10.540;2023-10-13T05:33:49;36.17;;;23.95;;
16101;SDS011;56411;52.964;10.540;2023-10-13T05:36:33;38.00;;;24.90;;
16101;SDS011;56411;52.964;10.540;2023-10-13T05:39:18;36.90;;;23.98;;
16101;SDS011;56411;52.964;10.540;2023-10-13T05:42:02;39.33;;;23.88;;
16101;SDS011;56411;52.964;10.540;2023-10-13T05:44:48;35.53;;;22.92;;
16101;SDS011;56411;52.964;10.540;2023-10-13T05:47:42;34.10;;;23.33;;
16101;SDS011;56411;52.964;10.540;2023-10-13T05:50:19;35.03;;;22.63;;
16101;SDS011;56411;52.964;10.540;2023-10-13T05:53:15;33.97;;;22.88;;
16101;SDS011;56411;52.964;10.540;2023-10-13T05:56:03;37.90;;;21.25;;
16101;SDS011;56411;52.964;10.540;2023-10-13T05:58:48;31.50;;;19.90;;
16101;SDS011;56411;52.964;10.540;2023-10-13T06:01:33;30.98;;;20.60;;
16101;SDS011;56411;52.964;10.540;2023-10-13T06:04:18;28.67;;;19.67;;
16101;SDS011;56411;52.964;10.540;2023-10-13T06:07:02;29.13;;;19.48;;
16101;SDS011;56411;52.964;10.540;2023-10-13T06:09:46;31.42;;;19.33;;
16101;SDS011;56411;52.964;10.540;2023-10-13T06:12:31;32.75;;;21.17;;
16101;SDS011;56411;52.964;10.540;2023-10-13T06:15:15;27.13;;;17.88;;
16101;SDS011;56411;52.964;10.540;2023-10-13T06:18:01;28.33;;;18.45;;
16101;SDS011;56411;52.964;10.540;2023-10-13T06:20:45;28.20;;;17.88;;
16101;SDS011;56411;52.964;10.540;2023-10-13T06:23:29;26.23;;;17.13;;
16101;SDS011;56411;52.964;10.540;2023-10-13T06:26:13;26.83;;;16.30;;
16101;SDS011;56411;52.964;10.540;2023-10-13T06:28:57;27.38;;;16.45;;
16101;SDS011;56411;52.964;10.540;2023-10-13T06:31:24;26.20;;;16.95;;
16101;SDS011;56411;52.964;10.540;2023-10-13T06:33:53;25.75;;;15.68;;
16101;SDS011;56411;52.964;10.540;2023-10-13T06:36:21;23.25;;;14.95;;
16101;SDS011;56411;52.964;10.540;2023-10-13T06:38:48;25.80;;;14.70;;
16101;SDS011;56411;52.964;10.540;2023-10-13T06:41:41;23.98;;;15.93;;
16101;SDS011;56411;52.964;10.540;2023-10-13T06:44:08;23.20;;;14.68;;
16101;SDS011;56411;52.964;10.540;2023-10-13T06:46:40;20.33;;;13.48;;
16101;SDS011;56411;52.964;10.540;2023-10-13T06:49:10;23.00;;;14.27;;
16101;SDS011;56411;52.964;10.540;2023-10-13T06:51:39;23.13;;;14.15;;
16101;SDS011;56411;52.964;10.540;2023-10-13T06:54:06;25.23;;;14.43;;
16101;SDS011;56411;52.964;10.540;2023-10-13T06:56:44;20.13;;;13.27;;
16101;SDS011;56411;52.964;10.540;2023-10-13T06:59:11;22.63;;;13.75;;
16101;SDS011;56411;52.964;10.540;2023-10-13T07:01:39;20.80;;;12.95;;
16101;SDS011;56411;52.964;10.540;2023-10-13T07:04:07;19.70;;;12.63;;
16101;SDS011;56411;52.964;10.540;2023-10-13T07:06:39;20.15;;;12.20;;
16101;SDS011;56411;52.964;10.540;2023-10-13T07:09:13;21.60;;;13.40;;
16101;SDS011;56411;52.964;10.540;2023-10-13T07:12:02;19.85;;;13.10;;
16101;SDS011;56411;52.964;10.540;2023-10-13T07:14:31;20.50;;;12.98;;
16101;SDS011;56411;52.964;10.540;2023-10-13T07:17:00;21.73;;;13.15;;
16101;SDS011;56411;52.964;10.540;2023-10-13T07:19:31;21.42;;;13.30;;
16101;SDS011;56411;52.964;10.540;2023-10-13T07:21:59;21.73;;;13.07;;
16101;SDS011;56411;52.964;10.540;2023-10-13T07:24:44;21.35;;;12.88;;
16101;SDS011;56411;52.964;10.540;2023-10-13T07:27:13;20.42;;;13.32;;
16101;SDS011;56411;52.964;10.540;2023-10-13T07:29:48;20.48;;;12.88;;
16101;SDS011;56411;52.964;10.540;2023-10-13T07:32:21;20.48;;;12.15;;
16101;SDS011;56411;52.964;10.540;2023-10-13T07:34:53;19.77;;;12.95;;
16101;SDS011;56411;52.964;10.540;2023-10-13T07:37:22;20.55;;;12.63;;
16101;SDS011;56411;52.964;10.540;2023-10-13T07:39:54;18.10;;;12.38;;
16101;SDS011;56411;52.964;10.540;2023-10-13T07:42:23;20.58;;;12.52;;
16101;SDS011;56411;52.964;10.540;2023-10-13T07:44:57;22.02;;;12.77;;
16101;SDS011;56411;52.964;10.540;2023-10-13T07:47:24;19.77;;;12.30;;
16101;SDS011;56411;52.964;10.540;2023-10-13T07:49:54;18.88;;;11.80;;
16101;SDS011;56411;52.964;10.540;2023-10-13T07:52:22;16.50;;;10.82;;
16101;SDS011;56411;52.964;10.540;2023-10-13T07:55:01;18.73;;;11.88;;
16101;SDS011;56411;52.964;10.540;2023-10-13T07:57:38;18.42;;;11.05;;
16101;SDS011;56411;52.964;10.540;2023-10-13T08:00:19;19.40;;;10.90;;
16101;SDS011;56411;52.964;10.540;2023-10-13T08:02:56;19.65;;;10.65;;
16101;SDS011;56411;52.964;10.540;2023-10-13T08:05:36;16.98;;;10.80;;
16101;SDS011;56411;52.964;10.540;2023-10-13T08:08:21;16.75;;;10.07;;
16101;SDS011;56411;52.964;10.540;2023-10-13T08:10:51;16.88;;;10.25;;
16101;SDS011;56411;52.964;10.540;2023-10-13T08:13:21;16.65;;;9.68;;
16101;SDS011;56411;52.964;10.540;2023-10-13T08:15:48;13.90;;;8.85;;
16101;SDS011;56411;52.964;10.540;2023-10-13T08:18:17;16.08;;;9.00;;
16101;SDS011;56411;52.964;10.540;2023-10-13T08:20:56;16.90;;;9.35;;
16101;SDS011;56411;52.964;10.540;2023-10-13T08:23:28;16.50;;;8.70;;
16101;SDS011;56411;52.964;10.540;2023-10-13T08:26:23;16.98;;;9.85;;
16101;SDS011;56411;52.964;10.540;2023-10-13T08:29:16;15.45;;;9.20;;
16101;SDS011;56411;52.964;10.540;2023-10-13T08:32:00;14.60;;;9.20;;
16101;SDS011;56411;52.964;10.540;2023-10-13T08:34:46;15.25;;;9.52;;
16101;SDS011;56411;52.964;10.540;2023-10-13T08:37:36;16.58;;;9.82;;
16101;SDS011;56411;52.964;10.540;2023-10-13T08:40:21;16.45;;;9.75;;
16101;SDS011;56411;52.964;10.540;2023-10-13T08:43:03;15.23;;;9.93;;
16101;SDS011;56411;52.964;10.540;2023-10-13T08:45:37;17.38;;;9.85;;
16101;SDS011;56411;52.964;10.540;2023-10-13T08:48:23;18.05;;;11.15;;
16101;SDS011;56411;52.964;10.540;2023-10-13T08:50:56;17.35;;;10.40;;
16101;SDS011;56411;52.964;10.540;2023-10-13T08:53:31;19.52;;;11.18;;
16101;SDS011;56411;52.964;10.540;2023-10-13T08:56:09;18.45;;;11.10;;
16101;SDS011;56411;52.964;10.540;2023-10-13T08:58:41;20.10;;;12.10;;
16101;SDS011;56411;52.964;10.540;2023-10-13T09:01:31;19.45;;;11.65;;
16101;SDS011;56411;52.964;10.540;2023-10-13T09:04:03;18.67;;;12.02;;
16101;SDS011;56411;52.964;10.540;2023-10-13T09:06:51;18.27;;;11.38;;
16101;SDS011;56411;52.964;10.540;2023-10-13T09:09:44;15.93;;;9.73;;
16101;SDS011;56411;52.964;10.540;2023-10-13T09:12:57;17.63;;;10.73;;
16101;SDS011;56411;52.964;10.540;2023-10-13T09:15:30;17.95;;;10.00;;
16101;SDS011;56411;52.964;10.540;2023-10-13T09:18:10;16.35;;;9.45;;
16101;SDS011;56411;52.964;10.540;2023-10-13T09:20:40;16.15;;;9.93;;
16101;SDS011;56411;52.964;10.540;2023-10-13T09:23:08;16.05;;;9.90;;
16101;SDS011;56411;52.964;10.540;2023-10-13T09:25:41;16.55;;;8.95;;
16101;SDS011;56411;52.964;10.540;2023-10-13T09:28:18;16.30;;;8.90;;
16101;SDS011;56411;52.964;10.540;2023-10-13T09:30:47;16.63;;;9.07;;
16101;SDS011;56411;52.964;10.540;2023-10-13T09:33:18;15.85;;;8.73;;
16101;SDS011;56411;52.964;10.540;2023-10-13T09:35:53;16.52;;;8.38;;
16101;SDS011;56411;52.964;10.540;2023-10-13T09:38:19;15.38;;;7.90;;
16101;SDS011;56411;52.964;10.540;2023-10-13T09:40:48;14.45;;;7.85;;
16101;SDS011;56411;52.964;10.540;2023-10-13T09:43:16;14.60;;;7.55;;
16101;SDS011;56411;52.964;10.540;2023-10-13T09:45:43;13.80;;;7.53;;
16101;SDS011;56411;52.964;10.540;2023-10-13T09:48:29;13.85;;;7.88;;
16101;SDS011;56411;52.964;10.540;2023-10-13T09:50:59;14.40;;;7.35;;
16101;SDS011;56411;52.964;10.540;2023-10-13T09:53:29;12.85;;;6.72;;
16101;SDS011;56411;52.964;10.540;2023-10-13T09:56:00;13.98;;;6.88;;
16101;SDS011;56411;52.964;10.540;2023-10-13T09:58:38;14.70;;;6.78;;
16101;SDS011;56411;52.964;10.540;2023-10-13T10:01:17;14.00;;;6.25;;
16101;SDS011;56411;52.964;10.540;2023-10-13T10:04:06;13.30;;;6.20;;
16101;SDS011;56411;52.964;10.540;2023-10-13T10:06:34;14.32;;;6.68;;
16101;SDS011;56411;52.964;10.540;2023-10-13T10:09:05;14.68;;;6.57;;
16101;SDS011;56411;52.964;10.540;2023-10-13T10:14:42;12.43;;;5.47;;
16101;SDS011;56411;52.964;10.540;2023-10-13T10:17:38;13.95;;;6.05;;
16101;SDS011;56411;52.964;10.540;2023-10-13T10:20:07;11.90;;;5.97;;
16101;SDS011;56411;52.964;10.540;2023-10-13T10:22:55;12.90;;;5.72;;
16101;SDS011;56411;52.964;10.540;2023-10-13T10:25:28;12.40;;;5.63;;
16101;SDS011;56411;52.964;10.540;2023-10-13T10:28:01;12.20;;;5.45;;
16101;SDS011;56411;52.964;10.540;2023-10-13T10:30:31;12.30;;;5.43;;
16101;SDS011;56411;52.964;10.540;2023-10-13T10:33:00;11.40;;;5.70;;
16101;SDS011;56411;52.964;10.540;2023-10-13T10:35:32;10.95;;;5.43;;
16101;SDS011;56411;52.964;10.540;2023-10-13T10:38:06;9.98;;;5.40;;
16101;SDS011;56411;52.964;10.540;2023-10-13T10:40:53;12.18;;;5.65;;
16101;SDS011;56411;52.964;10.540;2023-10-13T10:43:26;14.65;;;5.60;;
16101;SDS011;56411;52.964;10.540;2023-10-13T10:45:54;10.43;;;5.03;;
16101;SDS011;56411;52.964;10.540;2023-10-13T10:48:26;11.00;;;5.35;;
16101;SDS011;56411;52.964;10.540;2023-10-13T10:50:59;10.13;;;4.55;;
16101;SDS011;56411;52.964;10.540;2023-10-13T10:53:33;9.50;;;4.30;;
16101;SDS011;56411;52.964;10.540;2023-10-13T10:56:08;9.73;;;4.82;;
16101;SDS011;56411;52.964;10.540;2023-10-13T10:59:03;10.52;;;4.10;;
16101;SDS011;56411;52.964;10.540;2023-10-13T11:01:32;9.23;;;4.15;;
16101;SDS011;56411;52.964;10.540;2023-10-13T11:04:09;10.05;;;4.13;;
16101;SDS011;56411;52.964;10.540;2023-10-13T11:06:45;9.52;;;4.10;;
16101;SDS011;56411;52.964;10.540;2023-10-13T11:09:12;8.65;;;4.25;;
16101;SDS011;56411;52.964;10.540;2023-10-13T11:11:52;9.95;;;4.40;;
16101;SDS011;56411;52.964;10.540;2023-10-13T11:14:24;10.85;;;4.63;;
16101;SDS011;56411;52.964;10.540;2023-10-13T11:16:54;10.27;;;4.57;;
16101;SDS011;56411;52.964;10.540;2023-10-13T11:19:33;10.30;;;3.92;;
16101;SDS011;56411;52.964;10.540;2023-10-13T11:22:09;10.90;;;4.28;;
16101;SDS011;56411;52.964;10.540;2023-10-13T11:24:39;9.10;;;4.20;;
16101;SDS011;56411;52.964;10.540;2023-10-13T11:27:13;10.32;;;3.90;;
16101;SDS011;56411;52.964;10.540;2023-10-13T11:29:47;8.50;;;3.80;;
16101;SDS011;56411;52.964;10.540;2023-10-13T11:32:17;11.23;;;4.45;;
16101;SDS011;56411;52.964;10.540;2023-10-13T11:34:45;11.32;;;4.75;;
16101;SDS011;56411;52.964;10.540;2023-10-13T11:37:17;10.40;;;3.90;;
16101;SDS011;56411;52.964;10.540;2023-10-13T11:40:03;9.50;;;4.07;;
16101;SDS011;56411;52.964;10.540;2023-10-13T11:42:37;11.63;;;4.03;;
16101;SDS011;56411;52.964;10.540;2023-10-13T11:45:10;9.88;;;4.07;;
16101;SDS011;56411;52.964;10.540;2023-10-13T11:47:54;9.98;;;3.85;;
16101;SDS011;56411;52.964;10.540;2023-10-13T11:50:24;12.35;;;4.28;;
16101;SDS011;56411;52.964;10.540;2023-10-13T11:52:58;10.98;;;4.32;;
16101;SDS011;56411;52.964;10.540;2023-10-13T11:55:25;10.93;;;4.10;;
16101;SDS011;56411;52.964;10.540;2023-10-13T11:57:52;12.00;;;4.20;;
16101;SDS011;56411;52.964;10.540;2023-10-13T12:00:25;10.57;;;4.22;;
16101;SDS011;56411;52.964;10.540;2023-10-13T12:03:12;12.65;;;4.22;;
16101;SDS011;56411;52.964;10.540;2023-10-13T12:05:57;14.50;;;4.57;;
16101;SDS011;56411;52.964;10.540;2023-10-13T12:08:44;12.07;;;4.00;;
16101;SDS011;56411;52.964;10.540;2023-10-13T12:11:17;11.63;;;4.60;;
16101;SDS011;56411;52.964;10.540;2023-10-13T12:14:04;12.27;;;4.35;;
16101;SDS011;56411;52.964;10.540;2023-10-13T12:16:43;13.48;;;4.30;;
16101;SDS011;56411;52.964;10.540;2023-10-13T12:19:15;10.75;;;4.00;;
16101;SDS011;56411;52.964;10.540;2023-10-13T12:21:43;13.07;;;4.45;;
16101;SDS011;56411;52.964;10.540;2023-10-13T12:24:11;13.02;;;4.70;;
16101;SDS011;56411;52.964;10.540;2023-10-13T12:26:48;14.32;;;4.40;;
16101;SDS011;56411;52.964;10.540;2023-10-13T12:29:21;12.82;;;4.63;;
16101;SDS011;56411;52.964;10.540;2023-10-13T12:31:54;12.27;;;4.50;;
16101;SDS011;56411;52.964;10.540;2023-10-13T12:34:33;12.82;;;4.53;;
16101;SDS011;56411;52.964;10.540;2023-10-13T12:37:22;13.75;;;5.05;;
16101;SDS011;56411;52.964;10.540;2023-10-13T12:40:06;10.63;;;4.70;;
16101;SDS011;56411;52.964;10.540;2023-10-13T12:42:52;12.15;;;4.82;;
16101;SDS011;56411;52.964;10.540;2023-10-13T12:45:40;14.07;;;5.07;;
16101;SDS011;56411;52.964;10.540;2023-10-13T12:48:27;14.52;;;4.95;;
16101;SDS011;56411;52.964;10.540;2023-10-13T12:51:12;13.85;;;4.72;;
16101;SDS011;56411;52.964;10.540;2023-10-13T12:53:46;14.05;;;5.05;;
16101;SDS011;56411;52.964;10.540;2023-10-13T12:56:13;14.80;;;5.85;;
16101;SDS011;56411;52.964;10.540;2023-10-13T12:58:41;15.73;;;4.95;;
16101;SDS011;56411;52.964;10.540;2023-10-13T13:01:17;13.52;;;5.10;;
16101;SDS011;56411;52.964;10.540;2023-10-13T13:03:47;12.98;;;5.45;;
16101;SDS011;56411;52.964;10.540;2023-10-13T13:06:15;14.43;;;5.63;;
16101;SDS011;56411;52.964;10.540;2023-10-13T13:08:43;15.93;;;5.70;;
16101;SDS011;56411;52.964;10.540;2023-10-13T13:11:11;15.68;;;6.00;;
16101;SDS011;56411;52.964;10.540;2023-10-13T13:13:38;17.20;;;5.80;;
16101;SDS011;56411;52.964;10.540;2023-10-13T13:16:05;13.98;;;5.32;;
16101;SDS011;56411;52.964;10.540;2023-10-13T13:18:33;14.38;;;5.32;;
16101;SDS011;56411;52.964;10.540;2023-10-13T13:21:01;15.05;;;5.55;;
16101;SDS011;56411;52.964;10.540;2023-10-13T13:23:31;14.90;;;5.30;;
16101;SDS011;56411;52.964;10.540;2023-10-13T13:26:00;13.52;;;5.97;;
16101;SDS011;56411;52.964;10.540;2023-10-13T13:28:27;13.70;;;4.95;;
16101;SDS011;56411;52.964;10.540;2023-10-13T13:30:54;15.77;;;5.60;;
16101;SDS011;56411;52.964;10.540;2023-10-13T13:33:21;14.68;;;5.57;;
16101;SDS011;56411;52.964;10.540;2023-10-13T13:35:53;14.07;;;5.80;;
16101;SDS011;56411;52.964;10.540;2023-10-13T13:38:21;16.40;;;6.15;;
16101;SDS011;56411;52.964;10.540;2023-10-13T13:40:52;13.85;;;6.07;;
16101;SDS011;56411;52.964;10.540;2023-10-13T13:43:20;15.30;;;5.75;;
16101;SDS011;56411;52.964;10.540;2023-10-13T13:46:16;21.13;;;6.47;;
16101;SDS011;56411;52.964;10.540;2023-10-13T13:48:44;13.30;;;6.03;;
16101;SDS011;56411;52.964;10.540;2023-10-13T13:51:12;12.93;;;5.68;;
16101;SDS011;56411;52.964;10.540;2023-10-13T13:53:42;15.40;;;6.30;;
16101;SDS011;56411;52.964;10.540;2023-10-13T13:56:14;16.23;;;6.07;;
16101;SDS011;56411;52.964;10.540;2023-10-13T13:58:43;16.20;;;6.13;;
16101;SDS011;56411;52.964;10.540;2023-10-13T14:01:10;14.27;;;5.88;;
16101;SDS011;56411;52.964;10.540;2023-10-13T14:03:41;17.63;;;6.43;;
16101;SDS011;56411;52.964;10.540;2023-10-13T14:06:15;17.30;;;6.30;;
16101;SDS011;56411;52.964;10.540;2023-10-13T14:08:48;14.63;;;6.20;;
16101;SDS011;56411;52.964;10.540;2023-10-13T14:11:16;17.92;;;6.15;;
16101;SDS011;56411;52.964;10.540;2023-10-13T14:14:03;16.88;;;6.53;;
16101;SDS011;56411;52.964;10.540;2023-10-13T14:16:37;14.35;;;5.93;;
16101;SDS011;56411;52.964;10.540;2023-10-13T14:19:09;14.73;;;6.07;;
16101;SDS011;56411;52.964;10.540;2023-10-13T14:21:36;16.10;;;6.05;;
16101;SDS011;56411;52.964;10.540;2023-10-13T14:24:05;17.27;;;6.50;;
16101;SDS011;56411;52.964;10.540;2023-10-13T14:26:40;14.50;;;6.40;;
16101;SDS011;56411;52.964;10.540;2023-10-13T14:29:09;15.45;;;6.10;;
16101;SDS011;56411;52.964;10.540;2023-10-13T14:31:39;18.65;;;6.72;;
16101;SDS011;56411;52.964;10.540;2023-10-13T14:34:06;15.93;;;6.25;;
16101;SDS011;56411;52.964;10.540;2023-10-13T14:36:33;17.90;;;6.70;;
16101;SDS011;56411;52.964;10.540;2023-10-13T14:39:00;18.58;;;6.82;;
16101;SDS011;56411;52.964;10.540;2023-10-13T14:41:29;15.77;;;6.55;;
16101;SDS011;56411;52.964;10.540;2023-10-13T14:43:56;16.60;;;6.40;;
16101;SDS011;56411;52.964;10.540;2023-10-13T14:46:30;17.63;;;6.05;;
16101;SDS011;56411;52.964;10.540;2023-10-13T14:49:00;17.50;;;6.60;;
16101;SDS011;56411;52.964;10.540;2023-10-13T14:51:28;17.45;;;6.65;;
16101;SDS011;56411;52.964;10.540;2023-10-13T14:53:56;14.20;;;6.35;;
16101;SDS011;56411;52.964;10.540;2023-10-13T14:56:25;15.27;;;6.05;;
16101;SDS011;56411;52.964;10.540;2023-10-13T14:58:54;17.38;;;6.53;;
16101;SDS011;56411;52.964;10.540;2023-10-13T15:01:22;14.88;;;6.60;;
16101;SDS011;56411;52.964;10.540;2023-10-13T15:03:52;19.60;;;6.28;;